KABQ

Albuquerque International Sunport Airport

Albuquerque, New Mexico, USA
METAR KABQ 241952Z 00000KT 10SM FEW090 27/04 A3004 RMK AO2 SLP096 T02670039
Observed Flight Rules
Sep-24 @ 19:52 UTC (18 minutes ago) Visual Flight Rules
Visibility Clouds
10 miles
  • Few at 9,000' AGL
Temperatures Readings
Current 27°C / 81°F
Dewpoint 4°C / 39°F
Humidity 23%
Altimeter 30.04" Hg
Pressure 1009.6 hPa
Elevation 1618
METAR KABQ 241952Z 00000KT 10SM FEW090 27/04 A3004 RMK AO2 SLP096 T02670039
Observed Flight Rules
Sep-24 @ 19:52 UTC
(18 minutes ago)
VFR
Clouds
  • Few at 9,000' AGL
Temperature Dewpoint
27°C / 81°F 4°C / 39°F
Humidity Altimeter Pressure
23% 30.04" Hg 1009.6 hPa